createdAt,value
2022-09-07T00:02:10.596Z,2.97
2022-09-07T00:04:36.989Z,5.03
2022-09-07T00:07:03.472Z,7.22
2022-09-07T00:09:29.972Z,6.33
2022-09-07T00:11:56.327Z,5.28
2022-09-07T00:14:22.997Z,4.13
2022-09-07T00:16:49.464Z,8.23
2022-09-07T00:19:15.893Z,7.45
2022-09-07T00:21:42.273Z,5.23
2022-09-07T00:24:08.767Z,6.05
2022-09-07T00:26:35.359Z,4.82
2022-09-07T00:29:03.347Z,9.80
2022-09-07T00:31:30.690Z,5.50
2022-09-07T00:34:00.100Z,7.33
2022-09-07T00:36:26.687Z,5.32
2022-09-07T00:38:53.251Z,6.03
2022-09-07T00:41:21.881Z,10.50
2022-09-07T00:43:51.004Z,8.35
2022-09-07T00:46:26.683Z,7.57
2022-09-07T00:49:08.844Z,7.90
2022-09-07T00:51:57.894Z,7.95
2022-09-07T00:54:38.616Z,5.72
2022-09-07T00:57:06.083Z,7.55
2022-09-07T00:59:37.562Z,6.30
2022-09-07T01:02:04.475Z,9.20
2022-09-07T01:04:31.575Z,6.28
2022-09-07T01:06:58.872Z,5.22
2022-09-07T01:09:27.347Z,8.95
2022-09-07T01:11:54.755Z,7.77
2022-09-07T01:14:25.075Z,5.82
2022-09-07T01:17:06.722Z,5.35
2022-09-07T01:20:05.977Z,6.13
2022-09-07T01:22:53.742Z,4.72
2022-09-07T01:25:38.902Z,5.27
2022-09-07T01:28:17.424Z,3.58
2022-09-07T01:31:10.083Z,9.25
2022-09-07T01:33:42.484Z,7.35
2022-09-07T01:36:28.921Z,6.40
2022-09-07T01:39:00.180Z,7.23
2022-09-07T01:41:52.630Z,4.35
2022-09-07T01:44:28.740Z,4.88
2022-09-07T01:46:58.047Z,6.93
2022-09-07T01:49:35.059Z,4.05
2022-09-07T01:52:07.849Z,6.00
2022-09-07T01:54:45.423Z,6.53
2022-09-07T01:57:18.988Z,4.47
2022-09-07T01:59:53.236Z,3.95
2022-09-07T02:02:26.547Z,5.07
2022-09-07T02:04:59.785Z,7.33
2022-09-07T02:07:29.178Z,4.53
2022-09-07T02:10:24.347Z,6.05
2022-09-07T02:13:13.482Z,8.00
2022-09-07T02:16:02.137Z,5.85
2022-09-07T02:18:42.602Z,4.63
2022-09-07T02:21:10.695Z,5.50
2022-09-07T02:23:44.342Z,4.47
2022-09-07T02:26:19.615Z,8.15
2022-09-07T02:28:46.092Z,4.28
2022-09-07T02:31:12.671Z,4.40
2022-09-07T02:33:39.436Z,5.38
2022-09-07T02:36:06.634Z,5.38
2022-09-07T02:38:34.132Z,5.22
2022-09-07T02:41:02.630Z,5.78
2022-09-07T02:43:30.541Z,4.70
2022-09-07T02:46:05.895Z,3.42
2022-09-07T02:48:52.244Z,5.88
2022-09-07T02:51:25.879Z,5.30
2022-09-07T02:54:20.977Z,5.95
2022-09-07T02:57:19.166Z,5.37
2022-09-07T02:59:51.508Z,4.65
2022-09-07T03:02:51.957Z,3.85
2022-09-07T03:05:44.421Z,5.65
2022-09-07T03:08:22.338Z,5.68
2022-09-07T03:10:50.138Z,5.33
2022-09-07T03:13:25.716Z,7.65
2022-09-07T03:15:55.715Z,2.70
2022-09-07T03:18:23.697Z,5.00
2022-09-07T03:20:50.120Z,6.70
2022-09-07T03:23:16.513Z,6.70
2022-09-07T03:25:43.301Z,3.05
2022-09-07T03:28:09.964Z,4.35
2022-09-07T03:30:36.533Z,7.30
2022-09-07T03:33:03.017Z,6.28
2022-09-07T03:35:29.420Z,6.33
2022-09-07T03:37:55.785Z,7.05
2022-09-07T03:40:22.208Z,3.60
2022-09-07T03:42:50.107Z,4.50
2022-09-07T03:45:16.986Z,5.70
2022-09-07T03:47:43.389Z,4.37
2022-09-07T03:50:09.955Z,4.68
2022-09-07T03:52:36.437Z,5.05
2022-09-07T03:55:04.315Z,4.03
2022-09-07T03:57:30.936Z,6.25
2022-09-07T03:59:57.317Z,6.33
2022-09-07T04:02:23.746Z,4.78
2022-09-07T04:04:50.228Z,4.85
2022-09-07T04:07:16.669Z,5.78
2022-09-07T04:09:43.124Z,3.67
2022-09-07T04:12:09.655Z,4.57
2022-09-07T04:14:36.038Z,4.38
2022-09-07T04:17:02.548Z,3.90
2022-09-07T04:19:29.888Z,5.05
2022-09-07T04:21:56.271Z,3.58
2022-09-07T04:24:22.743Z,4.60
2022-09-07T04:26:49.239Z,5.38
2022-09-07T04:29:15.606Z,3.30
2022-09-07T04:31:41.996Z,3.22
2022-09-07T04:34:08.572Z,3.70
2022-09-07T04:36:35.283Z,3.70
2022-09-07T04:39:04.153Z,3.25
2022-09-07T04:41:32.433Z,6.95
2022-09-07T04:44:01.864Z,5.47
2022-09-07T04:46:36.931Z,5.20
2022-09-07T04:49:09.260Z,5.70
2022-09-07T04:51:38.401Z,3.78
2022-09-07T04:54:05.361Z,4.55
2022-09-07T04:56:32.581Z,4.07
2022-09-07T04:59:00.763Z,7.35
2022-09-07T05:01:27.362Z,5.37
2022-09-07T05:03:53.880Z,3.53
2022-09-07T05:06:22.617Z,6.10
2022-09-07T05:08:52.105Z,4.93
2022-09-07T05:11:21.994Z,4.40
2022-09-07T05:13:52.005Z,4.53
2022-09-07T05:16:21.355Z,7.63
2022-09-07T05:19:06.251Z,6.32
2022-09-07T05:21:34.774Z,6.35
2022-09-07T05:24:02.226Z,4.93
2022-09-07T05:26:31.554Z,6.70
2022-09-07T05:31:45.207Z,3.88
2022-09-07T05:36:58.589Z,6.40
2022-09-07T05:39:25.478Z,5.90
2022-09-07T05:41:52.143Z,5.20
2022-09-07T05:47:05.192Z,5.65
2022-09-07T05:49:32.394Z,4.68
2022-09-07T05:51:58.762Z,4.73
2022-09-07T05:54:25.446Z,6.97
2022-09-07T05:56:51.836Z,4.32
2022-09-07T05:59:18.201Z,4.97
2022-09-07T06:01:44.612Z,5.65
2022-09-07T06:04:11.088Z,6.80
2022-09-07T06:06:40.796Z,6.75
2022-09-07T06:09:07.836Z,7.13
2022-09-07T06:11:34.202Z,5.78
2022-09-07T06:14:00.633Z,9.02
2022-09-07T06:16:27.298Z,7.27
2022-09-07T06:18:54.494Z,6.93
2022-09-07T06:21:23.267Z,7.85
2022-09-07T06:23:51.248Z,9.63
2022-09-07T06:26:19.501Z,8.80
2022-09-07T06:28:50.174Z,9.27
2022-09-07T06:31:22.939Z,8.38
2022-09-07T06:33:50.483Z,7.53
2022-09-07T06:36:19.357Z,7.45
2022-09-07T06:38:47.033Z,9.45
2022-09-07T06:44:03.388Z,7.95
2022-09-07T06:49:16.120Z,7.88
2022-09-07T06:51:42.560Z,10.98
2022-09-07T06:56:55.701Z,9.90
2022-09-07T06:59:22.098Z,7.15
2022-09-07T07:01:49.068Z,9.90
2022-09-07T07:04:15.481Z,7.80
2022-09-07T07:06:41.861Z,9.50
2022-09-07T07:09:11.148Z,9.20
2022-09-07T07:11:37.606Z,10.05
2022-09-07T07:14:04.271Z,11.48
2022-09-07T07:16:31.118Z,11.85
2022-09-07T07:18:57.936Z,10.67
2022-09-07T07:21:24.371Z,10.93
2022-09-07T07:23:52.424Z,9.95
2022-09-07T07:26:21.418Z,10.82
2022-09-07T07:29:06.811Z,11.93
2022-09-07T07:31:34.907Z,11.70
2022-09-07T07:34:57.493Z,10.63
2022-09-07T07:37:27.998Z,11.38
2022-09-07T07:42:42.797Z,11.77
2022-09-07T07:47:57.047Z,11.63
2022-09-07T07:50:31.638Z,13.60
2022-09-07T07:55:45.330Z,10.90
2022-09-07T07:58:11.779Z,11.70
2022-09-07T08:00:53.827Z,12.13
2022-09-07T08:03:22.941Z,12.68
2022-09-07T08:05:49.325Z,13.38
2022-09-07T08:08:15.650Z,15.40
2022-09-07T08:10:42.165Z,13.87
2022-09-07T08:13:08.545Z,11.02
2022-09-07T08:15:41.184Z,11.15
2022-09-07T08:18:07.488Z,10.73
2022-09-07T08:20:34.042Z,14.32
2022-09-07T08:23:00.454Z,15.67
2022-09-07T08:25:28.377Z,11.25
2022-09-07T08:27:54.698Z,10.88
2022-09-07T08:30:22.244Z,13.75
2022-09-07T08:32:48.589Z,12.05
2022-09-07T08:35:15.009Z,11.73
2022-09-07T08:37:41.454Z,15.95
2022-09-07T08:40:10.472Z,13.20
2022-09-07T08:42:45.822Z,14.80
2022-09-07T08:45:21.595Z,14.70
2022-09-07T08:47:51.264Z,11.03
2022-09-07T08:50:29.316Z,12.98
2022-09-07T08:53:02.985Z,12.52
2022-09-07T08:55:38.941Z,12.13
2022-09-07T08:58:48.735Z,10.98
2022-09-07T09:01:34.495Z,12.13
2022-09-07T09:04:18.501Z,12.82
2022-09-07T09:07:09.843Z,15.00
2022-09-07T09:10:15.167Z,13.95
2022-09-07T09:13:09.607Z,12.30
2022-09-07T09:16:01.308Z,11.43
2022-09-07T09:18:36.354Z,12.90
2022-09-07T09:21:02.825Z,13.10
2022-09-07T09:23:40.545Z,11.43
2022-09-07T09:26:25.662Z,13.55
2022-09-07T09:28:52.047Z,12.07
2022-09-07T09:31:32.890Z,12.02
2022-09-07T09:34:05.103Z,11.18
2022-09-07T09:36:34.307Z,12.63
2022-09-07T09:39:01.121Z,11.85
2022-09-07T09:41:37.279Z,10.70
2022-09-07T09:44:04.021Z,10.93
2022-09-07T09:46:37.697Z,11.05
2022-09-07T09:49:26.384Z,11.13
2022-09-07T09:54:44.344Z,10.90
2022-09-07T09:57:17.947Z,10.32
2022-09-07T10:00:03.939Z,8.10
2022-09-07T10:05:24.448Z,11.00
2022-09-07T10:07:53.010Z,8.90
2022-09-07T10:10:19.446Z,8.43
2022-09-07T10:12:46.413Z,7.78
2022-09-07T10:15:28.184Z,9.75
2022-09-07T10:17:54.593Z,7.70
2022-09-07T10:20:37.952Z,7.27
2022-09-07T10:23:06.414Z,9.13
2022-09-07T10:25:34.819Z,7.28
2022-09-07T10:28:13.983Z,8.88
2022-09-07T10:31:14.534Z,8.05
2022-09-07T10:34:28.954Z,6.33
2022-09-07T10:37:03.890Z,5.85
2022-09-07T10:39:51.784Z,5.53
2022-09-07T10:42:35.540Z,3.88
2022-09-07T10:45:23.859Z,4.30
2022-09-07T10:48:02.398Z,6.50
2022-09-07T10:50:39.562Z,3.28
2022-09-07T10:53:40.780Z,3.80
2022-09-07T10:56:19.641Z,2.50
2022-09-07T10:59:07.093Z,5.30
2022-09-07T11:02:18.503Z,3.23
2022-09-07T11:04:45.329Z,3.97
2022-09-07T11:07:53.208Z,5.97
2022-09-07T11:10:48.967Z,4.93
2022-09-07T11:13:24.012Z,4.47
2022-09-07T11:15:54.527Z,4.70
2022-09-07T11:18:31.783Z,3.85
2022-09-07T11:21:01.031Z,5.80
2022-09-07T11:23:41.364Z,5.88
2022-09-07T11:26:35.158Z,8.13
2022-09-07T11:29:30.680Z,5.63
2022-09-07T11:32:09.649Z,4.18
2022-09-07T11:34:48.698Z,4.82
2022-09-07T11:37:39.947Z,6.25
2022-09-07T11:40:35.137Z,5.53
2022-09-07T11:43:11.566Z,6.67
2022-09-07T11:45:53.629Z,3.97
2022-09-07T11:48:31.905Z,4.60
2022-09-07T11:51:04.366Z,6.30
2022-09-07T11:53:41.706Z,4.22
2022-09-07T11:56:17.989Z,6.87
2022-09-07T11:58:54.911Z,5.85
2022-09-07T12:01:45.601Z,5.75
2022-09-07T12:04:37.381Z,4.55
2022-09-07T12:07:21.032Z,5.03
2022-09-07T12:09:59.542Z,4.73
2022-09-07T12:12:35.267Z,5.93
2022-09-07T12:15:27.320Z,4.10
2022-09-07T12:18:20.924Z,8.20
2022-09-07T12:20:48.566Z,5.75
2022-09-07T12:23:14.794Z,5.33
2022-09-07T12:25:42.902Z,5.13
2022-09-07T12:28:24.496Z,4.45
2022-09-07T12:31:06.613Z,4.65
2022-09-07T12:33:36.807Z,4.75
2022-09-07T12:36:26.099Z,5.47
2022-09-07T12:39:25.122Z,5.07
2022-09-07T12:45:29.941Z,4.10
2022-09-07T12:47:58.990Z,5.80
2022-09-07T12:50:29.715Z,3.00
2022-09-07T12:53:19.712Z,5.88
2022-09-07T12:59:22.222Z,4.55
2022-09-07T13:02:37.368Z,7.20
2022-09-07T13:05:15.561Z,5.77
2022-09-07T13:08:01.513Z,5.90
2022-09-07T13:10:36.203Z,4.63
2022-09-07T13:13:05.886Z,5.20
2022-09-07T13:15:42.443Z,4.93
2022-09-07T13:18:12.480Z,4.47
2022-09-07T13:20:41.476Z,3.90
2022-09-07T13:23:22.011Z,2.97
2022-09-07T13:25:51.530Z,6.40
2022-09-07T13:28:31.803Z,4.80
2022-09-07T13:31:18.997Z,4.93
2022-09-07T13:33:48.171Z,4.55
2022-09-07T13:36:32.488Z,6.70
2022-09-07T13:38:59.328Z,7.30
2022-09-07T13:41:34.876Z,3.60
2022-09-07T13:44:03.747Z,9.07
2022-09-07T13:46:56.438Z,4.65
2022-09-07T13:49:35.083Z,5.00
2022-09-07T13:52:08.818Z,3.25
2022-09-07T13:54:43.086Z,4.90
2022-09-07T13:57:25.953Z,4.60
2022-09-07T13:59:52.504Z,4.07
2022-09-07T14:02:29.350Z,4.35
2022-09-07T14:04:58.630Z,3.25
2022-09-07T14:07:27.839Z,1.90
2022-09-07T14:10:04.797Z,4.30
2022-09-07T14:12:31.150Z,3.22
2022-09-07T14:15:09.603Z,3.25
2022-09-07T14:17:36.208Z,3.05
2022-09-07T14:20:03.390Z,3.10
2022-09-07T14:22:34.053Z,5.10
2022-09-07T14:25:05.915Z,3.90
2022-09-07T14:27:36.515Z,2.15
2022-09-07T14:30:32.991Z,3.95
2022-09-07T14:33:01.607Z,6.32
2022-09-07T14:35:32.338Z,3.53
2022-09-07T14:38:07.308Z,2.60
2022-09-07T14:40:34.479Z,2.30
2022-09-07T14:43:00.768Z,2.70
2022-09-07T14:45:32.945Z,3.20
2022-09-07T14:47:59.340Z,5.90
2022-09-07T14:50:34.726Z,3.60
2022-09-07T14:56:01.887Z,3.72
2022-09-07T14:58:32.430Z,4.25
2022-09-07T15:04:02.061Z,3.47
2022-09-07T15:09:35.195Z,2.92
2022-09-07T15:12:18.936Z,2.70
2022-09-07T15:14:45.503Z,3.00
2022-09-07T15:17:47.480Z,2.42
2022-09-07T15:20:40.874Z,3.35
2022-09-07T15:23:13.508Z,4.07
2022-09-07T15:25:43.300Z,2.80
2022-09-07T15:29:08.119Z,2.23
2022-09-07T15:33:57.524Z,4.70
2022-09-07T15:36:23.845Z,3.47
2022-09-07T15:39:05.575Z,2.42
2022-09-07T15:41:32.852Z,4.77
2022-09-07T15:43:59.432Z,5.22
2022-09-07T15:46:26.285Z,2.88
2022-09-07T15:48:55.094Z,3.42
2022-09-07T15:54:14.219Z,5.67
2022-09-07T15:56:42.384Z,3.67
2022-09-07T15:59:10.013Z,3.85
2022-09-07T16:01:52.568Z,5.03
2022-09-07T16:04:19.647Z,3.38
2022-09-07T16:06:48.176Z,3.43
2022-09-07T16:09:16.142Z,4.65
2022-09-07T16:11:42.464Z,5.03
2022-09-07T16:14:11.623Z,5.25
2022-09-07T16:19:24.705Z,4.67
2022-09-07T16:21:51.011Z,2.83
2022-09-07T16:24:17.479Z,4.28
2022-09-07T16:26:43.801Z,3.08
2022-09-07T16:29:10.252Z,1.40
2022-09-07T16:31:37.122Z,3.20
2022-09-07T16:34:04.243Z,3.80
2022-09-07T16:36:30.811Z,2.63
2022-09-07T16:38:59.433Z,2.53
2022-09-07T16:41:31.586Z,3.15
2022-09-07T16:43:59.046Z,3.67
2022-09-07T16:46:28.173Z,4.95
2022-09-07T16:48:55.068Z,2.97
2022-09-07T16:51:22.780Z,4.10
2022-09-07T16:53:50.918Z,3.47
2022-09-07T16:56:19.727Z,2.07
2022-09-07T16:58:51.992Z,3.50
2022-09-07T17:01:21.190Z,2.42
2022-09-07T17:03:51.349Z,2.83
2022-09-07T17:06:20.116Z,4.03
2022-09-07T17:08:47.123Z,4.37
2022-09-07T17:11:19.383Z,2.58
2022-09-07T17:13:46.610Z,3.13
2022-09-07T17:16:19.680Z,2.65
2022-09-07T17:21:36.093Z,5.03
2022-09-07T17:24:04.590Z,3.97
2022-09-07T17:26:32.736Z,2.03
2022-09-07T17:29:00.974Z,3.78
2022-09-07T17:34:19.529Z,2.10
2022-09-07T17:36:46.071Z,6.35
2022-09-07T17:39:14.227Z,7.90
2022-09-07T17:41:41.642Z,2.60
2022-09-07T17:44:07.963Z,1.67
2022-09-07T17:46:34.440Z,2.47
2022-09-07T17:49:02.154Z,3.80
2022-09-07T17:51:31.735Z,3.58
2022-09-07T17:54:01.769Z,3.50
2022-09-07T17:56:28.493Z,4.18
2022-09-07T18:00:10.475Z,3.83
2022-09-07T18:01:41.580Z,3.92
2022-09-07T18:04:09.835Z,7.03
2022-09-07T18:06:36.813Z,3.50
2022-09-07T18:09:04.476Z,4.80
2022-09-07T18:11:48.112Z,4.37
2022-09-07T18:14:15.529Z,2.83
2022-09-07T18:16:44.259Z,4.15
2022-09-07T18:19:11.907Z,3.33
2022-09-07T18:21:40.983Z,5.20
2022-09-07T18:24:13.578Z,3.33
2022-09-07T18:26:40.918Z,5.43
2022-09-07T18:29:25.943Z,2.28
2022-09-07T18:31:54.790Z,3.47
2022-09-07T18:34:21.289Z,3.20
2022-09-07T18:36:47.712Z,3.10
2022-09-07T18:39:14.277Z,2.72
2022-09-07T18:41:40.863Z,2.75
2022-09-07T18:45:27.271Z,4.55
2022-09-07T18:46:53.864Z,2.47
2022-09-07T18:49:20.382Z,4.23
2022-09-07T18:54:34.041Z,5.20
2022-09-07T18:57:00.411Z,4.65
2022-09-07T18:59:26.796Z,5.25
2022-09-07T19:01:53.945Z,4.50
2022-09-07T19:04:22.294Z,3.95
2022-09-07T19:06:48.821Z,3.03
2022-09-07T19:09:15.170Z,5.03
2022-09-07T19:11:42.206Z,4.13
2022-09-07T19:14:08.698Z,4.13
2022-09-07T19:16:36.272Z,4.43
2022-09-07T19:19:05.561Z,4.70
2022-09-07T19:21:34.617Z,3.47
2022-09-07T19:24:14.725Z,4.07
2022-09-07T19:26:45.949Z,2.57
2022-09-07T19:29:15.323Z,4.00
2022-09-07T19:32:04.052Z,4.47
2022-09-07T19:34:36.021Z,5.70
2022-09-07T19:37:03.709Z,5.50
2022-09-07T19:39:30.401Z,3.57
2022-09-07T19:41:57.119Z,4.35
2022-09-07T19:44:25.564Z,3.03
2022-09-07T19:46:52.136Z,4.80
2022-09-07T19:49:18.483Z,4.80
2022-09-07T19:51:45.495Z,6.00
2022-09-07T19:54:12.652Z,4.00
2022-09-07T19:56:40.748Z,3.90
2022-09-07T19:59:07.494Z,3.30
2022-09-07T20:01:35.054Z,5.30
2022-09-07T20:04:04.282Z,2.80
2022-09-07T20:06:35.163Z,3.15
2022-09-07T20:09:02.954Z,3.60
2022-09-07T20:11:29.505Z,3.65
2022-09-07T20:13:57.162Z,2.80
2022-09-07T20:16:24.759Z,4.13
2022-09-07T20:18:51.744Z,5.05
2022-09-07T20:21:27.678Z,3.22
2022-09-07T20:23:54.033Z,5.03
2022-09-07T20:26:21.546Z,4.47
2022-09-07T20:29:10.633Z,4.00
2022-09-07T20:31:37.371Z,5.15
2022-09-07T20:34:03.960Z,2.47
2022-09-07T20:36:30.285Z,3.25
2022-09-07T20:38:57.257Z,3.50
2022-09-07T20:41:28.577Z,6.33
2022-09-07T20:43:56.145Z,3.53
2022-09-07T20:46:22.744Z,4.80
2022-09-07T20:48:49.099Z,7.10
2022-09-07T20:51:20.810Z,5.22
2022-09-07T20:53:48.626Z,5.27
2022-09-07T20:56:17.564Z,6.70
2022-09-07T20:58:45.785Z,3.38
2022-09-07T21:01:14.837Z,3.10
2022-09-07T21:03:49.075Z,4.25
2022-09-07T21:06:16.151Z,3.57
2022-09-07T21:08:44.414Z,8.00
2022-09-07T21:11:16.953Z,7.18
2022-09-07T21:13:44.120Z,5.75
2022-09-07T21:16:13.664Z,5.88
2022-09-07T21:18:41.077Z,7.80
2022-09-07T21:21:23.411Z,4.05
2022-09-07T21:24:00.746Z,4.35
2022-09-07T21:26:28.107Z,4.35
2022-09-07T21:29:02.486Z,6.68
2022-09-07T21:31:31.327Z,4.20
2022-09-07T21:34:00.515Z,6.18
2022-09-07T21:36:27.849Z,4.07
2022-09-07T21:38:54.914Z,3.63
2022-09-07T21:41:23.108Z,6.88
2022-09-07T21:43:53.494Z,3.57
2022-09-07T21:46:19.955Z,5.43
2022-09-07T21:48:46.573Z,5.55
2022-09-07T21:51:14.009Z,2.80
2022-09-07T21:53:40.860Z,6.78
2022-09-07T21:56:11.067Z,3.30
2022-09-07T21:58:37.562Z,3.88
2022-09-07T22:01:17.015Z,4.60
2022-09-07T22:03:45.435Z,4.88
2022-09-07T22:06:12.323Z,6.00
2022-09-07T22:08:40.285Z,3.83
2022-09-07T22:11:10.565Z,3.22
2022-09-07T22:13:37.420Z,5.82
2022-09-07T22:16:05.004Z,5.20
2022-09-07T22:18:31.749Z,4.60
2022-09-07T22:21:03.329Z,3.43
2022-09-07T22:23:34.523Z,4.90
2022-09-07T22:26:01.012Z,3.78
2022-09-07T22:28:29.433Z,3.53
2022-09-07T22:30:56.932Z,3.33
2022-09-07T22:33:23.390Z,2.63
2022-09-07T22:35:50.528Z,3.00
2022-09-07T22:38:16.846Z,5.95
2022-09-07T22:40:43.177Z,3.00
2022-09-07T22:43:09.502Z,4.78
2022-09-07T22:45:35.846Z,4.77
2022-09-07T22:48:02.350Z,3.53
2022-09-07T22:50:28.678Z,7.22
2022-09-07T22:52:55.000Z,5.25
2022-09-07T22:55:21.361Z,5.78
2022-09-07T22:57:47.737Z,3.93
2022-09-07T23:00:14.481Z,6.47
2022-09-07T23:02:40.813Z,3.30
2022-09-07T23:05:07.839Z,3.88
2022-09-07T23:07:34.209Z,3.83
2022-09-07T23:10:00.793Z,4.20
2022-09-07T23:12:27.123Z,6.13
2022-09-07T23:14:53.455Z,4.53
2022-09-07T23:17:19.826Z,5.22
2022-09-07T23:19:47.010Z,8.32
2022-09-07T23:22:14.143Z,5.70
2022-09-07T23:24:41.534Z,5.18
2022-09-07T23:27:07.862Z,5.03
2022-09-07T23:29:34.187Z,7.30
2022-09-07T23:32:00.533Z,4.38
2022-09-07T23:34:26.872Z,3.17
2022-09-07T23:36:53.242Z,5.20
2022-09-07T23:39:19.655Z,5.13
2022-09-07T23:41:45.986Z,3.60
2022-09-07T23:44:12.366Z,5.00
2022-09-07T23:46:38.748Z,6.93
2022-09-07T23:49:05.258Z,8.13
2022-09-07T23:51:31.593Z,5.90
2022-09-07T23:53:57.934Z,5.28
2022-09-07T23:56:24.450Z,7.05
2022-09-07T23:58:51.059Z,6.83
